createdAt,value
2022-08-17T00:02:26.182Z,20.50
2022-08-17T00:05:31.517Z,20.44
2022-08-17T00:08:46.045Z,20.44
2022-08-17T00:12:41.924Z,20.40
2022-08-17T00:15:13.380Z,20.39
2022-08-17T00:19:01.957Z,20.38
2022-08-17T00:22:29.848Z,20.35
2022-08-17T00:25:02.107Z,20.33
2022-08-17T00:28:04.443Z,20.29
2022-08-17T00:31:08.477Z,20.23
2022-08-17T00:34:10.579Z,20.16
2022-08-17T00:37:12.921Z,20.13
2022-08-17T00:40:15.814Z,20.11
2022-08-17T00:43:42.298Z,20.04
2022-08-17T00:46:44.910Z,20.05
2022-08-17T00:49:47.293Z,20.03
2022-08-17T00:52:55.329Z,19.99
2022-08-17T00:56:01.057Z,20.01
2022-08-17T00:59:05.493Z,19.92
2022-08-17T01:02:09.637Z,19.93
2022-08-17T01:05:20.770Z,19.89
2022-08-17T01:08:25.973Z,19.89
2022-08-17T01:11:30.647Z,19.88
2022-08-17T01:14:32.957Z,19.86
2022-08-17T01:17:35.155Z,19.80
2022-08-17T01:20:48.045Z,19.80
2022-08-17T01:23:50.529Z,19.77
2022-08-17T01:26:52.842Z,19.72
2022-08-17T01:30:58.439Z,19.66
2022-08-17T01:33:31.113Z,19.62
2022-08-17T01:36:33.215Z,19.62
2022-08-17T01:39:39.194Z,19.62
2022-08-17T01:43:07.404Z,19.57
2022-08-17T01:46:10.457Z,19.60
2022-08-17T01:49:12.813Z,19.61
2022-08-17T01:52:15.857Z,19.53
2022-08-17T01:55:27.102Z,19.51
2022-08-17T01:58:29.704Z,19.44
2022-08-17T02:01:33.760Z,19.48
2022-08-17T02:04:36.204Z,19.47
2022-08-17T02:07:59.999Z,19.49
2022-08-17T02:11:04.260Z,19.42
2022-08-17T02:14:13.908Z,19.41
2022-08-17T02:17:16.244Z,19.38
2022-08-17T02:20:18.436Z,19.41
2022-08-17T02:23:42.640Z,19.45
2022-08-17T02:26:46.248Z,19.44
2022-08-17T02:29:48.550Z,19.41
2022-08-17T02:32:54.216Z,19.42
2022-08-17T02:35:57.856Z,19.40
2022-08-17T02:39:01.677Z,19.34
2022-08-17T02:42:04.830Z,19.33
2022-08-17T02:45:15.683Z,19.29
2022-08-17T02:48:30.451Z,19.33
2022-08-17T02:51:34.893Z,19.36
2022-08-17T02:54:40.318Z,19.32
2022-08-17T02:57:44.393Z,19.32
2022-08-17T03:00:48.238Z,19.30
2022-08-17T03:03:50.335Z,19.31
2022-08-17T03:06:52.799Z,19.30
2022-08-17T03:09:55.969Z,19.29
2022-08-17T03:12:58.837Z,19.26
2022-08-17T03:16:00.933Z,19.25
2022-08-17T03:19:03.276Z,19.20
2022-08-17T03:22:34.702Z,19.19
2022-08-17T03:25:33.529Z,19.20
2022-08-17T03:28:39.585Z,19.19
2022-08-17T03:31:41.777Z,19.19
2022-08-17T03:34:43.759Z,19.16
2022-08-17T03:37:46.063Z,19.14
2022-08-17T03:40:58.470Z,19.17
2022-08-17T03:44:02.158Z,19.17
2022-08-17T03:47:22.972Z,19.15
2022-08-17T03:50:43.677Z,19.19
2022-08-17T03:54:10.343Z,19.24
2022-08-17T03:57:13.395Z,19.26
2022-08-17T04:00:15.596Z,19.33
2022-08-17T04:03:18.282Z,19.39
2022-08-17T04:06:20.943Z,19.45
2022-08-17T04:09:23.289Z,19.47
2022-08-17T04:12:30.574Z,19.54
2022-08-17T04:15:33.587Z,19.64
2022-08-17T04:18:35.632Z,19.69
2022-08-17T04:21:38.009Z,19.75
2022-08-17T04:24:40.067Z,19.81
2022-08-17T04:27:42.315Z,19.87
2022-08-17T04:30:45.446Z,19.93
2022-08-17T04:33:47.856Z,19.96
2022-08-17T04:36:50.450Z,20.05
2022-08-17T04:40:13.031Z,20.12
2022-08-17T04:43:18.598Z,20.17
2022-08-17T04:46:24.479Z,20.23
2022-08-17T04:49:26.531Z,20.31
2022-08-17T04:52:29.675Z,20.40
2022-08-17T04:55:45.706Z,20.50
2022-08-17T04:58:50.307Z,20.58
2022-08-17T05:01:52.626Z,20.65
2022-08-17T05:04:54.923Z,20.69
2022-08-17T05:08:02.742Z,20.76
2022-08-17T05:11:05.536Z,20.78
2022-08-17T05:14:07.551Z,20.84
2022-08-17T05:17:11.488Z,20.92
2022-08-17T05:20:13.772Z,20.96
2022-08-17T05:23:18.511Z,20.97
2022-08-17T05:26:26.256Z,21.01
2022-08-17T05:29:35.076Z,21.00
2022-08-17T05:32:40.295Z,21.09
2022-08-17T05:35:47.251Z,21.24
2022-08-17T05:38:50.549Z,21.27
2022-08-17T05:41:52.878Z,21.40
2022-08-17T05:44:57.923Z,21.62
2022-08-17T05:48:00.188Z,21.73
2022-08-17T05:51:15.689Z,21.80
2022-08-17T05:54:42.911Z,21.96
2022-08-17T05:58:04.272Z,22.07
2022-08-17T06:01:26.576Z,22.13
2022-08-17T06:04:36.114Z,22.27
2022-08-17T06:07:57.048Z,22.53
2022-08-17T06:11:20.556Z,22.91
2022-08-17T06:14:46.606Z,23.22
2022-08-17T06:17:53.029Z,23.37
2022-08-17T06:21:03.736Z,23.40
2022-08-17T06:24:16.020Z,23.48
2022-08-17T06:27:32.767Z,23.50
2022-08-17T06:30:59.559Z,23.71
2022-08-17T06:34:07.059Z,23.94
2022-08-17T06:37:27.419Z,24.13
2022-08-17T06:40:45.639Z,24.30
2022-08-17T06:44:10.253Z,24.61
2022-08-17T06:47:28.568Z,24.96
2022-08-17T06:50:48.270Z,25.24
2022-08-17T06:54:02.747Z,25.67
2022-08-17T06:57:16.668Z,25.85
2022-08-17T07:00:29.879Z,25.94
2022-08-17T07:03:54.479Z,26.13
2022-08-17T07:07:26.305Z,26.53
2022-08-17T07:10:36.017Z,27.13
2022-08-17T07:13:51.492Z,27.12
2022-08-17T07:16:56.284Z,27.25
2022-08-17T07:20:06.819Z,27.53
2022-08-17T07:23:27.517Z,27.83
2022-08-17T07:26:29.957Z,28.09
2022-08-17T07:29:44.634Z,28.59
2022-08-17T07:32:50.803Z,28.62
2022-08-17T07:35:53.228Z,28.98
2022-08-17T07:38:58.017Z,29.31
2022-08-17T07:42:04.725Z,29.17
2022-08-17T07:45:28.057Z,29.47
2022-08-17T07:48:36.073Z,29.87
2022-08-17T07:51:44.131Z,30.05
2022-08-17T07:54:46.251Z,29.69
2022-08-17T07:57:57.371Z,29.85
2022-08-17T08:01:06.665Z,29.90
2022-08-17T08:04:59.080Z,29.64
2022-08-17T08:07:52.363Z,30.22
2022-08-17T08:11:06.544Z,30.58
2022-08-17T08:14:28.576Z,30.53
2022-08-17T08:17:36.561Z,30.09
2022-08-17T08:21:09.819Z,30.24
2022-08-17T08:24:36.649Z,30.48
2022-08-17T08:28:03.171Z,30.95
2022-08-17T08:31:15.833Z,30.91
2022-08-17T08:34:58.622Z,31.04
2022-08-17T08:38:30.145Z,31.15
2022-08-17T08:41:38.737Z,30.69
2022-08-17T08:45:00.585Z,30.91
2022-08-17T08:48:53.808Z,31.19
2022-08-17T08:52:03.003Z,31.20
2022-08-17T08:55:23.651Z,31.15
2022-08-17T08:58:43.582Z,31.25
2022-08-17T09:02:16.760Z,31.35
2022-08-17T09:05:21.935Z,31.07
2022-08-17T09:08:38.310Z,31.25
2022-08-17T09:12:02.893Z,31.19
2022-08-17T09:15:27.438Z,31.72
2022-08-17T09:19:02.629Z,32.24
2022-08-17T09:22:00.899Z,32.45
2022-08-17T09:25:03.287Z,32.15
2022-08-17T09:28:19.198Z,32.02
2022-08-17T09:31:33.939Z,32.04
2022-08-17T09:34:50.220Z,32.01
2022-08-17T09:38:32.532Z,31.64
2022-08-17T09:41:56.526Z,32.04
2022-08-17T09:45:09.815Z,32.23
2022-08-17T09:48:31.026Z,32.37
2022-08-17T09:51:49.407Z,32.43
2022-08-17T09:54:54.605Z,31.99
2022-08-17T09:58:21.285Z,32.03
2022-08-17T10:01:47.513Z,31.99
2022-08-17T10:05:04.720Z,32.00
2022-08-17T10:08:30.481Z,32.31
2022-08-17T10:11:54.255Z,32.67
2022-08-17T10:15:22.423Z,32.60
2022-08-17T10:18:46.728Z,32.88
2022-08-17T10:22:32.674Z,33.14
2022-08-17T10:25:56.194Z,32.73
2022-08-17T10:29:20.868Z,32.56
2022-08-17T10:32:34.876Z,32.51
2022-08-17T10:36:14.409Z,32.20
2022-08-17T10:39:27.370Z,31.89
2022-08-17T10:42:36.212Z,31.56
2022-08-17T10:45:51.502Z,31.53
2022-08-17T10:49:20.966Z,31.24
2022-08-17T10:52:24.855Z,31.60
2022-08-17T10:55:27.806Z,32.00
2022-08-17T10:58:38.268Z,32.48
2022-08-17T11:01:42.087Z,32.85
2022-08-17T11:04:53.415Z,32.82
2022-08-17T11:08:14.218Z,32.66
2022-08-17T11:12:00.742Z,32.73
2022-08-17T11:15:27.995Z,33.14
2022-08-17T11:18:42.127Z,32.91
2022-08-17T11:22:22.100Z,32.85
2022-08-17T11:25:45.017Z,32.83
2022-08-17T11:28:52.902Z,32.61
2022-08-17T11:32:32.045Z,32.54
2022-08-17T11:35:47.158Z,32.84
2022-08-17T11:39:25.005Z,33.30
2022-08-17T11:42:45.926Z,33.36
2022-08-17T11:46:19.595Z,33.61
2022-08-17T11:49:58.683Z,33.44
2022-08-17T11:53:01.123Z,33.72
2022-08-17T11:56:09.573Z,33.31
2022-08-17T11:59:33.838Z,32.98
2022-08-17T12:02:47.828Z,32.79
2022-08-17T12:06:00.583Z,32.59
2022-08-17T12:09:10.827Z,32.15
2022-08-17T12:12:35.803Z,31.93
2022-08-17T12:15:42.672Z,32.26
2022-08-17T12:19:02.271Z,32.45
2022-08-17T12:22:14.731Z,32.81
2022-08-17T12:25:44.542Z,33.23
2022-08-17T12:28:49.176Z,33.41
2022-08-17T12:31:54.261Z,33.23
2022-08-17T12:34:56.590Z,32.97
2022-08-17T12:37:59.893Z,32.69
2022-08-17T12:41:25.748Z,32.45
2022-08-17T12:44:40.492Z,32.21
2022-08-17T12:48:11.045Z,32.16
2022-08-17T12:51:13.436Z,32.21
2022-08-17T12:54:52.701Z,32.00
2022-08-17T12:57:58.412Z,31.83
2022-08-17T13:01:09.199Z,31.90
2022-08-17T13:04:14.476Z,31.82
2022-08-17T13:07:32.726Z,31.82
2022-08-17T13:10:36.339Z,32.19
2022-08-17T13:13:41.925Z,32.28
2022-08-17T13:16:53.879Z,32.32
2022-08-17T13:19:56.254Z,32.07
2022-08-17T13:23:01.364Z,31.66
2022-08-17T13:26:09.460Z,31.46
2022-08-17T13:29:44.285Z,31.35
2022-08-17T13:32:47.326Z,31.41
2022-08-17T13:35:51.938Z,31.62
2022-08-17T13:39:07.384Z,31.81
2022-08-17T13:42:50.226Z,31.94
2022-08-17T13:46:08.376Z,32.20
2022-08-17T13:49:11.933Z,32.11
2022-08-17T13:52:38.348Z,32.22
2022-08-17T13:55:48.307Z,32.39
2022-08-17T13:58:56.432Z,32.42
2022-08-17T14:01:59.251Z,32.64
2022-08-17T14:05:02.069Z,32.89
2022-08-17T14:08:11.376Z,33.03
2022-08-17T14:11:13.412Z,32.91
2022-08-17T14:14:16.951Z,32.71
2022-08-17T14:17:20.152Z,32.66
2022-08-17T14:20:22.684Z,32.72
2022-08-17T14:23:25.240Z,32.43
2022-08-17T14:26:27.587Z,32.35
2022-08-17T14:29:31.999Z,32.24
2022-08-17T14:32:36.767Z,32.28
2022-08-17T14:35:38.895Z,32.42
2022-08-17T14:38:41.277Z,32.34
2022-08-17T14:41:43.740Z,32.36
2022-08-17T14:44:46.140Z,32.41
2022-08-17T14:47:48.216Z,32.56
2022-08-17T14:50:50.559Z,32.61
2022-08-17T14:53:52.632Z,32.60
2022-08-17T14:56:57.033Z,32.54
2022-08-17T15:00:17.415Z,32.36
2022-08-17T15:03:19.772Z,32.32
2022-08-17T15:06:22.382Z,32.37
2022-08-17T15:09:24.679Z,32.48
2022-08-17T15:12:32.076Z,32.57
2022-08-17T15:15:35.308Z,32.33
2022-08-17T15:18:37.396Z,32.42
2022-08-17T15:21:39.867Z,32.47
2022-08-17T15:24:42.003Z,32.16
2022-08-17T15:27:44.553Z,32.21
2022-08-17T15:30:46.819Z,32.19
2022-08-17T15:33:49.611Z,32.19
2022-08-17T15:36:52.462Z,32.06
2022-08-17T15:39:55.200Z,32.03
2022-08-17T15:42:57.817Z,31.98
2022-08-17T15:46:16.401Z,31.84
2022-08-17T15:49:18.909Z,31.78
2022-08-17T15:52:24.953Z,31.88
2022-08-17T15:55:29.606Z,31.83
2022-08-17T15:58:36.337Z,32.03
2022-08-17T16:03:01.271Z,31.75
2022-08-17T16:05:10.133Z,31.60
2022-08-17T16:08:15.891Z,31.73
2022-08-17T16:11:22.641Z,31.54
2022-08-17T16:14:33.824Z,31.63
2022-08-17T16:17:39.987Z,31.58
2022-08-17T16:20:43.585Z,31.51
2022-08-17T16:23:47.654Z,31.37
2022-08-17T16:26:49.808Z,31.22
2022-08-17T16:29:52.097Z,31.06
2022-08-17T16:32:59.598Z,30.81
2022-08-17T16:36:01.906Z,30.70
2022-08-17T16:39:04.805Z,30.62
2022-08-17T16:42:25.098Z,30.51
2022-08-17T16:45:31.423Z,30.28
2022-08-17T16:48:33.767Z,30.22
2022-08-17T16:51:36.479Z,30.12
2022-08-17T16:54:44.420Z,30.09
2022-08-17T16:57:50.599Z,29.90
2022-08-17T17:00:54.537Z,29.87
2022-08-17T17:04:00.065Z,29.93
2022-08-17T17:07:33.903Z,29.89
2022-08-17T17:10:51.485Z,29.62
2022-08-17T17:14:02.079Z,29.59
2022-08-17T17:17:36.368Z,29.52
2022-08-17T17:20:58.962Z,29.41
2022-08-17T17:24:04.951Z,29.30
2022-08-17T17:27:22.897Z,29.19
2022-08-17T17:30:50.243Z,29.14
2022-08-17T17:33:56.035Z,29.07
2022-08-17T17:37:06.153Z,29.03
2022-08-17T17:40:23.565Z,28.98
2022-08-17T17:43:38.775Z,28.90
2022-08-17T17:46:50.288Z,28.75
2022-08-17T17:49:52.485Z,28.56
2022-08-17T17:53:02.098Z,28.39
2022-08-17T17:56:17.189Z,28.27
2022-08-17T17:59:48.555Z,28.13
2022-08-17T18:03:16.721Z,27.87
2022-08-17T18:06:51.299Z,27.67
2022-08-17T18:10:01.133Z,27.44
2022-08-17T18:13:22.892Z,27.38
2022-08-17T18:16:31.879Z,27.10
2022-08-17T18:19:34.501Z,26.99
2022-08-17T18:22:36.536Z,26.89
2022-08-17T18:26:01.978Z,26.76
2022-08-17T18:29:30.231Z,26.67
2022-08-17T18:32:37.077Z,26.55
2022-08-17T18:35:39.110Z,26.47
2022-08-17T18:38:43.167Z,26.43
2022-08-17T18:41:49.083Z,26.35
2022-08-17T18:44:55.106Z,26.29
2022-08-17T18:47:57.837Z,26.21
2022-08-17T18:51:41.397Z,26.10
2022-08-17T18:55:06.070Z,25.98
2022-08-17T18:58:18.290Z,25.92
2022-08-17T19:01:21.468Z,25.86
2022-08-17T19:05:02.613Z,25.72
2022-08-17T19:08:29.432Z,25.59
2022-08-17T19:11:35.870Z,25.52
2022-08-17T19:14:38.418Z,25.42
2022-08-17T19:18:00.138Z,25.29
2022-08-17T19:21:08.318Z,25.21
2022-08-17T19:24:26.343Z,25.14
2022-08-17T19:27:42.005Z,25.05
2022-08-17T19:30:49.214Z,24.95
2022-08-17T19:33:51.852Z,24.82
2022-08-17T19:37:00.735Z,24.72
2022-08-17T19:40:08.774Z,24.60
2022-08-17T19:44:07.835Z,24.53
2022-08-17T19:47:53.955Z,24.48
2022-08-17T19:51:06.803Z,24.38
2022-08-17T19:54:35.053Z,24.29
2022-08-17T19:58:17.752Z,24.25
2022-08-17T20:01:48.898Z,24.17
2022-08-17T20:04:53.577Z,24.07
2022-08-17T20:08:09.264Z,23.93
2022-08-17T20:11:22.072Z,23.84
2022-08-17T20:14:36.722Z,23.80
2022-08-17T20:17:42.573Z,23.71
2022-08-17T20:20:47.675Z,23.62
2022-08-17T20:24:16.231Z,23.55
2022-08-17T20:28:06.324Z,23.51
2022-08-17T20:31:48.837Z,23.42
2022-08-17T20:35:20.161Z,23.38
2022-08-17T20:38:38.858Z,23.31
2022-08-17T20:42:03.948Z,23.29
2022-08-17T20:45:26.344Z,23.27
2022-08-17T20:48:38.317Z,23.26
2022-08-17T20:52:02.344Z,23.26
2022-08-17T20:55:05.377Z,23.24
2022-08-17T20:58:23.297Z,23.20
2022-08-17T21:01:39.761Z,23.17
2022-08-17T21:05:00.204Z,23.23
2022-08-17T21:08:17.097Z,23.10
2022-08-17T21:12:03.481Z,23.17
2022-08-17T21:14:57.384Z,23.14
2022-08-17T21:18:25.643Z,23.08
2022-08-17T21:21:50.235Z,23.05
2022-08-17T21:25:22.512Z,23.02
2022-08-17T21:28:34.264Z,23.01
2022-08-17T21:32:09.465Z,22.93
2022-08-17T21:35:12.372Z,22.81
2022-08-17T21:38:16.277Z,22.80
2022-08-17T21:41:24.437Z,22.76
2022-08-17T21:44:49.680Z,22.72
2022-08-17T21:48:12.750Z,22.68
2022-08-17T21:51:22.793Z,22.65
2022-08-17T21:54:36.434Z,22.56
2022-08-17T21:57:41.536Z,22.46
2022-08-17T22:01:27.465Z,22.38
2022-08-17T22:04:30.876Z,22.23
2022-08-17T22:07:50.648Z,22.21
2022-08-17T22:11:00.941Z,22.18
2022-08-17T22:14:05.686Z,22.17
2022-08-17T22:17:21.739Z,22.13
2022-08-17T22:20:23.788Z,22.10
2022-08-17T22:23:51.899Z,22.08
2022-08-17T22:27:03.332Z,22.07
2022-08-17T22:30:18.045Z,22.04
2022-08-17T22:33:49.367Z,21.96
2022-08-17T22:37:19.064Z,21.92
2022-08-17T22:40:32.604Z,21.88
2022-08-17T22:43:38.250Z,21.82
2022-08-17T22:47:04.463Z,21.83
2022-08-17T22:50:21.505Z,21.78
2022-08-17T22:53:42.290Z,21.74
2022-08-17T22:57:20.953Z,21.72
2022-08-17T23:00:42.917Z,21.65
2022-08-17T23:04:09.187Z,21.57
2022-08-17T23:07:11.760Z,21.51
2022-08-17T23:10:14.942Z,21.44
2022-08-17T23:13:16.948Z,21.35
2022-08-17T23:16:21.109Z,21.33
2022-08-17T23:19:23.127Z,21.29
2022-08-17T23:22:25.452Z,21.23
2022-08-17T23:25:30.753Z,21.16
2022-08-17T23:28:37.358Z,21.13
2022-08-17T23:31:40.393Z,21.04
2022-08-17T23:34:44.197Z,21.06
2022-08-17T23:37:46.286Z,20.99
2022-08-17T23:40:48.857Z,21.02
2022-08-17T23:43:54.987Z,21.03
2022-08-17T23:46:57.705Z,20.99
2022-08-17T23:50:01.598Z,20.96
2022-08-17T23:53:06.042Z,20.91
2022-08-17T23:56:11.325Z,20.86
2022-08-17T23:59:15.172Z,20.82
